Time;durP1;ratioP1;P1;durP2;ratioP2;P2;SDS_P1;SDS_P2;PMS_P1;PMS_P2;Temp;Humidity;BMP_temperature;BMP_pressure;BME280_temperature;BME280_humidity;BME280_pressure;Samples;Min_cycle;Max_cycle;Signal;HPM_P1;HPM_P2
2022/05/14 00:00:49;;;;;;;9.03;2.63;;;;;;;1.35;71.51;101021.81;10589928;28;20578;-86
2022/05/14 00:05:56;;;;;;;7.93;2.73;;;;;;;1.42;71.32;101016.69;10571053;28;20216;-87
2022/05/14 00:16:21;;;;;;;11.67;2.63;;;;;;;0.69;74.44;101025.38;10573740;28;20217;-87
2022/05/14 00:21:23;;;;;;;5.53;2.40;;;;;;;1.08;72.97;101026.06;10571162;28;20231;-86
2022/05/14 00:26:26;;;;;;;9.60;2.87;;;;;;;0.86;73.88;101023.78;10570507;28;20254;-87
2022/05/14 00:31:29;;;;;;;7.23;2.70;;;;;;;0.56;74.57;101020.47;10570645;28;20282;-86
2022/05/14 00:36:32;;;;;;;9.20;4.07;;;;;;;0.81;74.34;101017.41;10570733;28;20210;-86
2022/05/14 00:41:36;;;;;;;7.67;2.60;;;;;;;0.62;75.28;101019.28;10569989;28;20593;-86
2022/05/14 00:47:00;;;;;;;5.83;2.50;;;;;;;0.53;75.83;101019.09;10569836;28;20251;-86
2022/05/14 00:52:03;;;;;;;7.00;2.33;;;;;;;0.59;74.96;101020.69;10552788;28;20190;-86
2022/05/14 00:57:11;;;;;;;9.37;3.43;;;;;;;0.24;76.90;101015.44;10585925;28;20232;-87
2022/05/14 01:02:14;;;;;;;6.73;2.77;;;;;;;0.32;76.85;101009.19;10552865;28;20235;-86
2022/05/14 01:07:19;;;;;;;5.73;2.93;;;;;;;0.70;75.35;101004.59;10552791;28;20520;-86
2022/05/14 01:12:24;;;;;;;10.33;3.23;;;;;;;0.50;75.89;101017.72;10568832;28;20217;-87
2022/05/14 01:17:26;;;;;;;6.77;2.83;;;;;;;0.17;77.06;101001.75;10568263;28;20262;-86
2022/05/14 01:22:50;;;;;;;8.83;3.30;;;;;;;0.20;77.63;101003.13;10551314;28;20189;-86
2022/05/14 01:27:57;;;;;;;10.60;3.97;;;;;;;0.38;77.01;101002.41;10585372;28;20190;-86
2022/05/14 01:33:07;;;;;;;9.80;4.07;;;;;;;0.31;76.99;101010.31;10552026;28;20697;-86
2022/05/14 01:38:15;;;;;;;7.30;3.57;;;;;;;0.17;77.04;101006.53;10569403;28;20214;-86
2022/05/14 01:43:18;;;;;;;9.30;3.70;;;;;;;0.28;77.11;101000.56;10568134;28;20182;-87
2022/05/14 01:48:21;;;;;;;10.17;4.20;;;;;;;0.38;76.42;101000.44;10567844;28;20211;-87
2022/05/14 01:53:25;;;;;;;7.23;3.67;;;;;;;0.40;75.98;101006.59;10567570;28;20232;-87
2022/05/14 01:58:37;;;;;;;7.40;3.57;;;;;;;0.55;75.50;101007.59;10572833;28;20247;-86
2022/05/14 02:04:01;;;;;;;7.97;3.60;;;;;;;0.83;74.44;101007.53;10574084;28;20216;-87
2022/05/14 02:09:08;;;;;;;8.07;3.70;;;;;;;0.84;73.95;101008.38;10567698;28;20190;-86
2022/05/14 02:14:11;;;;;;;12.23;3.73;;;;;;;1.09;73.61;100999.69;10567627;28;20239;-86
2022/05/14 02:19:14;;;;;;;11.13;3.97;;;;;;;0.82;74.62;101005.03;10568622;28;20695;-86
2022/05/14 02:24:16;;;;;;;10.33;4.20;;;;;;;0.82;74.58;100997.44;10568280;28;20683;-86
2022/05/14 02:29:19;;;;;;;9.90;4.50;;;;;;;0.75;74.67;100998.94;10551491;28;20594;-85
2022/05/14 02:34:21;;;;;;;9.67;4.37;;;;;;;0.94;73.94;100997.06;10552524;28;20549;-86
2022/05/14 02:39:23;;;;;;;10.70;4.75;;;;;;;1.00;73.43;100998.66;10592043;28;20193;-85
2022/05/14 02:44:26;;;;;;;10.40;4.70;;;;;;;0.74;74.86;101011.28;10575107;28;20186;-86
2022/05/14 02:49:28;;;;;;;8.00;4.40;;;;;;;0.65;75.46;101004.66;10592019;28;20186;-86
2022/05/14 02:54:31;;;;;;;14.67;4.80;;;;;;;0.72;75.35;101007.94;10574846;28;20198;-86
2022/05/14 02:59:33;;;;;;;14.07;5.33;;;;;;;0.75;74.68;101012.97;10591446;28;20182;-86
2022/05/14 03:04:37;;;;;;;10.63;4.73;;;;;;;0.79;75.04;101002.84;10584755;27;20190;-85
2022/05/14 03:09:41;;;;;;;12.43;5.47;;;;;;;1.02;73.00;101003.97;10574205;28;20254;-85
2022/05/14 03:14:44;;;;;;;10.73;4.67;;;;;;;0.92;73.16;101001.28;10574028;28;20266;-85
2022/05/14 03:19:46;;;;;;;11.60;4.60;;;;;;;0.81;73.61;101000.56;10557136;28;20642;-88
2022/05/14 03:24:48;;;;;;;9.70;4.33;;;;;;;0.90;72.88;101004.38;10556900;28;20186;-85
2022/05/14 03:29:51;;;;;;;11.30;4.30;;;;;;;0.79;73.07;100997.22;10573326;28;20235;-86
2022/05/14 03:34:54;;;;;;;11.20;4.03;;;;;;;0.88;71.91;101001.03;10556364;28;20206;-85
2022/05/14 03:39:57;;;;;;;8.97;4.37;;;;;;;0.94;71.36;101002.66;10589816;28;20178;-85
2022/05/14 03:44:59;;;;;;;8.13;3.53;;;;;;;0.62;72.28;100996.84;10555669;28;20198;-86
2022/05/14 03:50:02;;;;;;;8.33;3.70;;;;;;;0.48;72.97;101007.91;10572090;28;20194;-85
2022/05/14 03:55:05;;;;;;;8.40;3.70;;;;;;;0.38;72.61;101014.47;10571670;28;20231;-86
2022/05/14 04:00:11;;;;;;;12.00;4.37;;;;;;;0.57;72.02;101011.75;10572297;28;20182;-86
2022/05/14 04:05:18;;;;;;;10.10;3.47;;;;;;;0.30;72.87;101019.88;10557063;28;20186;-85
2022/05/14 04:10:21;;;;;;;6.70;3.30;;;;;;;0.30;72.77;101023.47;10555258;28;20219;-86
2022/05/14 04:15:23;;;;;;;10.90;4.03;;;;;;;0.52;71.50;101015.44;10571103;28;20630;-85
2022/05/14 04:20:26;;;;;;;7.57;3.20;;;;;;;0.62;70.96;101024.88;10571088;28;20231;-85
2022/05/14 04:25:30;;;;;;;8.03;3.43;;;;;;;0.56;70.17;101024.09;10554386;28;20185;-86
2022/05/14 04:30:33;;;;;;;7.70;2.93;;;;;;;0.38;70.50;101036.88;10548702;27;20213;-86
2022/05/14 04:35:35;;;;;;;7.40;3.50;;;;;;;0.44;70.40;101041.28;10578904;27;20217;-88
2022/05/14 04:40:38;;;;;;;3.77;2.90;;;;;;;0.29;70.61;101049.00;10586398;27;20218;-85
2022/05/14 04:45:43;;;;;;;5.83;2.33;;;;;;;0.14;70.71;101049.97;10621867;27;20181;-85
2022/05/14 04:50:47;;;;;;;7.37;2.50;;;;;;;0.12;70.91;101055.88;10588945;27;20650;-86
2022/05/14 04:55:50;;;;;;;8.70;2.60;;;;;;;0.10;70.17;101058.13;10546862;28;20697;-86
2022/05/14 05:00:52;;;;;;;6.90;2.43;;;;;;;0.32;69.64;101063.25;10560834;28;20223;-87
2022/05/14 05:05:57;;;;;;;6.77;2.57;;;;;;;0.50;68.94;101062.56;10544332;28;20212;-84
2022/05/14 05:11:00;;;;;;;5.93;2.37;;;;;;;0.70;67.68;101071.88;10545127;28;20197;-85
2022/05/14 05:16:02;;;;;;;9.10;2.70;;;;;;;0.50;68.14;101079.38;10579718;28;20217;-86
2022/05/14 05:21:07;;;;;;;4.40;2.03;;;;;;;0.76;67.07;101076.31;10561971;28;20231;-86
2022/05/14 05:26:09;;;;;;;7.27;3.20;;;;;;;0.76;67.91;101081.94;10545910;28;20255;-86
2022/05/14 05:31:11;;;;;;;8.70;2.30;;;;;;;0.79;67.35;101079.38;10562141;28;20178;-86
2022/05/14 05:36:13;;;;;;;5.10;2.30;;;;;;;0.80;66.74;101088.63;10562306;28;20202;-86
2022/05/14 05:41:15;;;;;;;5.03;2.07;;;;;;;1.09;65.83;101086.66;10590898;27;20198;-86
2022/05/14 05:46:18;;;;;;;9.00;2.93;;;;;;;1.03;64.97;101095.41;10620023;27;20234;-85
2022/05/14 05:51:20;;;;;;;9.90;2.37;;;;;;;1.01;65.20;101101.31;10587704;27;20216;-85
2022/05/14 06:01:44;;;;;;;5.57;2.37;;;;;;;1.12;66.49;101097.28;10520591;28;20194;-86
2022/05/14 06:06:47;;;;;;;9.40;2.50;;;;;;;1.19;65.72;101096.94;10501711;28;20191;-86
2022/05/14 06:11:50;;;;;;;10.47;2.93;;;;;;;1.01;65.80;101097.66;10501275;28;20303;-86
2022/05/14 06:16:53;;;;;;;5.67;2.47;;;;;;;0.98;65.43;101093.47;10517914;28;20219;-87
2022/05/14 06:21:55;;;;;;;3.87;2.20;;;;;;;1.35;64.06;101106.84;10517956;28;20280;-87
2022/05/14 06:26:57;;;;;;;8.80;2.70;;;;;;;1.19;64.76;101097.78;10518065;28;20178;-86
2022/05/14 06:31:59;;;;;;;6.67;2.63;;;;;;;1.68;64.03;101105.03;10518382;28;20186;-86
2022/05/14 06:37:02;;;;;;;7.03;2.80;;;;;;;1.93;63.39;101101.88;10501284;28;20696;-87
2022/05/14 06:42:05;;;;;;;6.80;2.60;;;;;;;1.58;63.64;101116.41;10502123;28;20590;-87
2022/05/14 06:47:11;;;;;;;7.90;2.93;;;;;;;1.72;63.96;101122.13;10524876;28;20217;-87
2022/05/14 06:52:15;;;;;;;5.80;2.93;;;;;;;1.86;63.01;101123.88;10534395;28;20190;-86
2022/05/14 06:57:18;;;;;;;10.02;3.28;;;;;;;2.28;62.75;101125.00;10536489;28;20206;-87
2022/05/14 07:02:20;;;;;;;9.23;2.77;;;;;;;2.14;64.04;101124.09;10517812;28;20248;-87
2022/05/14 07:07:22;;;;;;;9.13;2.80;;;;;;;2.06;64.17;101121.94;10500711;28;20195;-87
2022/05/14 07:12:25;;;;;;;10.97;3.63;;;;;;;2.16;63.01;101121.81;10500399;28;20218;-87
2022/05/14 07:17:28;;;;;;;7.07;3.60;;;;;;;2.18;65.36;101131.63;10517216;28;20218;-87
2022/05/14 07:22:30;;;;;;;9.77;3.40;;;;;;;2.35;62.52;101125.47;10538832;28;20194;-87
2022/05/14 07:27:35;;;;;;;8.63;2.97;;;;;;;2.76;62.08;101122.00;10524617;28;20191;-86
2022/05/14 07:32:37;;;;;;;6.67;3.27;;;;;;;2.94;61.59;101115.47;10507036;28;20202;-86
2022/05/14 07:37:43;;;;;;;7.40;2.70;;;;;;;3.34;59.90;101120.38;10507376;28;20692;-86
2022/05/14 07:42:53;;;;;;;10.23;3.03;;;;;;;3.11;60.95;101117.69;10589956;27;20193;-87
2022/05/14 07:47:56;;;;;;;9.80;3.17;;;;;;;3.53;60.11;101119.44;10607920;27;20189;-86
2022/05/14 07:52:59;;;;;;;8.23;3.53;;;;;;;3.73;60.03;101104.91;10590899;27;20582;-85
2022/05/14 07:58:03;;;;;;;9.63;3.20;;;;;;;4.06;58.63;101103.59;10608467;27;20209;-86
2022/05/14 08:03:06;;;;;;;6.00;2.50;;;;;;;4.15;58.54;101111.34;10624608;27;20185;-87
2022/05/14 08:08:08;;;;;;;7.57;3.40;;;;;;;4.10;59.77;101103.00;10590092;27;20185;-87
2022/05/14 08:13:15;;;;;;;9.80;3.40;;;;;;;4.41;58.73;101110.44;10589470;27;20701;-86
2022/05/14 08:18:17;;;;;;;10.98;3.17;;;;;;;4.83;56.72;101104.59;10590349;27;20216;-87
2022/05/14 08:28:40;;;;;;;10.18;3.15;;;;;;;4.88;56.21;101101.63;10623833;27;20591;-86
2022/05/14 08:33:43;;;;;;;6.50;3.17;;;;;;;4.82;57.03;101103.75;10564615;28;20198;-87
2022/05/14 08:38:45;;;;;;;7.75;2.40;;;;;;;4.53;57.57;101101.41;10579751;28;20210;-86
2022/05/14 08:43:50;;;;;;;8.15;2.70;;;;;;;5.52;57.38;101093.66;10595137;27;20201;-87
2022/05/14 08:48:55;;;;;;;9.95;2.47;;;;;;;5.55;56.48;101093.84;10566076;28;20244;-87
2022/05/14 08:53:58;;;;;;;10.80;3.05;;;;;;;5.09;55.23;101094.31;10568028;28;20215;-87
2022/05/14 08:59:38;;;;;;;7.00;3.30;;;;;;;5.79;55.26;101094.25;10563093;28;20217;-88
2022/05/14 09:04:40;;;;;;;9.52;3.65;;;;;;;5.84;54.34;101090.44;10547051;28;20193;-88
2022/05/14 09:09:52;;;;;;;10.73;2.92;;;;;;;6.10;53.19;101085.69;10520584;28;20202;-87
2022/05/14 09:14:57;;;;;;;9.27;3.65;;;;;;;6.35;53.48;101088.84;10543778;28;20275;-87
2022/05/14 09:20:02;;;;;;;8.48;3.30;;;;;;;6.69;51.29;101088.03;10565403;28;20222;-88
2022/05/14 09:25:28;;;;;;;11.57;3.45;;;;;;;6.23;53.07;101091.53;10544703;28;20197;-88
2022/05/14 09:30:40;;;;;;;11.18;2.78;;;;;;;6.50;53.69;101092.03;10544160;28;20190;-87
2022/05/14 09:35:56;;;;;;;10.23;3.05;;;;;;;6.63;51.63;101090.19;10538829;28;20214;-88
2022/05/14 09:41:21;;;;;;;5.40;2.25;;;;;;;6.82;51.71;101076.50;10564206;27;20244;-86
2022/05/14 09:46:29;;;;;;;10.07;2.63;;;;;;;6.74;49.64;101083.03;10541965;28;20206;-89
2022/05/14 09:51:52;;;;;;;9.27;2.80;;;;;;;7.04;49.68;101071.81;10562843;28;20186;-87
2022/05/14 09:57:19;;;;;;;10.38;2.65;;;;;;;7.39;48.17;101067.66;10544826;28;20217;-87
2022/05/14 10:02:31;;;;;;;6.80;2.83;;;;;;;7.79;48.40;101072.97;10544849;28;20259;-88
2022/05/14 10:07:42;;;;;;;13.93;6.15;;;;;;;7.47;48.91;101078.13;10561113;28;20186;-87
2022/05/14 10:12:50;;;;;;;10.63;3.35;;;;;;;8.04;46.01;101071.97;10544501;28;20618;-88
2022/05/14 10:18:13;;;;;;;9.63;2.20;;;;;;;8.07;46.18;101071.28;10552298;28;20222;-85
2022/05/14 10:29:00;;;;;;;9.77;2.08;;;;;;;7.52;46.91;101072.28;10575905;28;20197;-88
2022/05/14 10:34:07;;;;;;;7.60;2.10;;;;;;;8.18;46.11;101061.19;10561126;28;20255;-85
2022/05/14 10:39:34;;;;;;;9.40;2.75;;;;;;;8.30;44.50;101072.63;10533286;28;20692;-85
2022/05/14 10:44:43;;;;;;;9.65;2.10;;;;;;;8.55;44.64;101064.22;10561871;28;20193;-84
2022/05/14 10:50:02;;;;;;;6.22;2.13;;;;;;;7.79;45.53;101065.31;10558420;28;20536;-89
2022/05/14 10:55:35;;;;;;;7.88;1.80;;;;;;;8.37;42.70;101066.38;10555727;28;20206;-87
2022/05/14 11:00:42;;;;;;;9.50;2.60;;;;;;;8.01;46.87;101066.97;10584623;28;20186;-85
2022/05/14 11:05:53;;;;;;;6.97;2.72;;;;;;;9.16;42.55;101062.41;10550438;28;20270;-85
2022/05/14 11:11:05;;;;;;;8.55;2.78;;;;;;;9.47;40.83;101063.88;10565062;28;20195;-85
2022/05/14 11:16:10;;;;;;;12.60;2.53;;;;;;;9.04;39.69;101075.78;10556197;28;20215;-87
2022/05/14 11:21:14;;;;;;;8.63;2.53;;;;;;;8.67;42.78;101055.75;10557077;28;20210;-87
2022/05/14 11:26:17;;;;;;;6.07;2.20;;;;;;;9.60;40.91;101072.06;10550469;28;20198;-86
2022/05/14 11:31:24;;;;;;;9.60;2.88;;;;;;;9.13;42.30;101068.00;10573058;28;20215;-85
2022/05/14 11:36:29;;;;;;;8.30;2.45;;;;;;;9.33;40.75;101061.38;10608724;28;20498;-86
2022/05/14 11:41:37;;;;;;;6.97;2.85;;;;;;;9.50;39.82;101069.69;10553665;28;20246;-86
2022/05/14 11:46:41;;;;;;;8.30;2.60;;;;;;;9.23;38.65;101067.53;10567108;28;20190;-85
2022/05/14 11:51:51;;;;;;;10.68;2.53;;;;;;;8.52;42.67;101060.06;10580243;28;20201;-86
2022/05/14 11:56:59;;;;;;;12.35;2.88;;;;;;;8.91;42.24;101063.50;10581407;28;20513;-86
2022/05/14 12:02:05;;;;;;;13.13;2.35;;;;;;;9.81;40.12;101060.56;10563441;28;20245;-86
2022/05/14 12:07:26;;;;;;;10.32;2.65;;;;;;;9.04;41.34;101064.41;10547884;28;20582;-86
2022/05/14 12:13:05;;;;;;;6.95;2.35;;;;;;;9.12;40.51;101061.47;10580402;28;20222;-86
2022/05/14 12:18:10;;;;;;;11.85;2.58;;;;;;;9.96;39.05;101050.47;10545932;28;20257;-86
2022/05/14 12:23:17;;;;;;;14.70;4.05;;;;;;;9.10;40.22;101054.50;10563761;28;20451;-86
2022/05/14 12:28:28;;;;;;;7.57;2.95;;;;;;;9.34;38.23;101051.66;10563045;28;20186;-86
2022/05/14 12:33:30;;;;;;;11.00;2.38;;;;;;;9.85;37.72;101043.63;10579544;28;20204;-86
2022/05/14 12:38:36;;;;;;;11.48;4.70;;;;;;;10.07;39.40;101040.25;10579023;28;20298;-87
2022/05/14 12:43:42;;;;;;;10.32;3.38;;;;;;;9.34;39.52;101046.81;10594217;27;20189;-86
2022/05/14 12:48:48;;;;;;;7.05;3.40;;;;;;;9.26;39.47;101038.38;10605330;27;20211;-87
2022/05/14 12:53:52;;;;;;;10.68;4.82;;;;;;;9.04;39.06;101036.00;10603886;27;20193;-88
2022/05/14 12:58:54;;;;;;;7.50;4.30;;;;;;;9.20;40.25;101031.28;10589577;27;20506;-87
2022/05/14 13:04:01;;;;;;;9.65;4.95;;;;;;;9.23;39.32;101027.75;10544676;28;20782;-88
2022/05/14 13:09:07;;;;;;;10.27;4.78;;;;;;;9.31;39.79;101032.47;10544697;28;20190;-89
2022/05/14 13:14:23;;;;;;;15.57;5.15;;;;;;;10.05;39.12;101028.38;10561463;28;20707;-87
2022/05/14 13:19:35;;;;;;;9.80;5.05;;;;;;;10.01;36.34;101021.78;10562034;28;20251;-89
2022/05/14 13:24:38;;;;;;;12.48;5.07;;;;;;;9.96;37.48;101016.31;10544038;28;20597;-87
2022/05/14 13:29:41;;;;;;;52.22;40.72;;;;;;;10.70;36.49;101012.84;10544176;28;20194;-85
2022/05/14 13:40:31;;;;;;;9.98;4.50;;;;;;;11.04;36.06;101005.63;10562006;28;20282;-84
2022/05/14 13:45:36;;;;;;;12.40;4.75;;;;;;;11.36;36.57;100994.25;10560158;28;20174;-88
2022/05/14 13:50:43;;;;;;;9.45;3.40;;;;;;;11.44;35.02;101001.78;10560103;28;20233;-88
2022/05/14 13:55:45;;;;;;;9.38;4.03;;;;;;;10.85;35.96;100996.97;10558840;28;20198;-89
2022/05/14 14:00:57;;;;;;;12.48;4.40;;;;;;;11.26;36.25;100991.94;10569331;28;20302;-86
2022/05/14 14:05:59;;;;;;;11.65;3.80;;;;;;;10.66;35.91;100994.00;10577748;28;20240;-86
2022/05/14 14:11:01;;;;;;;7.32;3.15;;;;;;;10.55;36.72;100987.19;10559756;28;20216;-86
2022/05/14 14:16:04;;;;;;;9.93;2.83;;;;;;;10.43;36.43;100986.03;10560228;28;20226;-87
2022/05/14 14:21:09;;;;;;;7.28;3.10;;;;;;;9.80;36.42;100986.97;10569535;28;20210;-88
2022/05/14 14:26:12;;;;;;;10.18;3.50;;;;;;;10.54;34.75;100980.69;10542337;28;20540;-85
2022/05/14 14:31:18;;;;;;;8.98;3.50;;;;;;;10.47;35.79;100973.94;10549330;28;20458;-89
2022/05/14 14:36:23;;;;;;;7.22;2.60;;;;;;;10.20;38.26;100976.41;10566321;28;20193;-83
2022/05/14 14:41:25;;;;;;;14.73;4.43;;;;;;;10.42;35.57;100973.00;10563955;27;20242;-85
2022/05/14 14:46:27;;;;;;;10.93;2.95;;;;;;;10.94;36.18;100974.84;10608895;27;20185;-83
2022/05/14 14:51:30;;;;;;;10.20;5.18;;;;;;;10.72;35.78;100969.75;10609379;27;20181;-84
2022/05/14 14:56:32;;;;;;;8.13;2.70;;;;;;;10.12;36.32;100966.00;10608659;27;20185;-84
2022/05/14 15:01:46;;;;;;;4.70;2.47;;;;;;;10.52;37.00;100956.59;10570269;28;20198;-84
2022/05/14 15:06:50;;;;;;;9.20;2.65;;;;;;;10.64;35.46;100962.22;10583114;28;20490;-83
2022/05/14 15:11:52;;;;;;;10.55;4.28;;;;;;;9.93;35.20;100949.56;10565039;28;20695;-80
2022/05/14 15:16:54;;;;;;;12.32;5.30;;;;;;;10.98;35.03;100943.56;10582130;28;20210;-81
2022/05/14 15:21:57;;;;;;;8.35;2.78;;;;;;;10.45;35.50;100950.69;10583151;28;20198;-82
2022/05/14 15:26:59;;;;;;;5.72;2.88;;;;;;;10.73;35.25;100948.63;10582196;28;20179;-83
2022/05/14 15:32:04;;;;;;;8.20;3.45;;;;;;;10.80;34.70;100948.00;10565258;28;20207;-83
2022/05/14 15:37:07;;;;;;;6.70;3.15;;;;;;;10.58;34.62;100952.28;10581666;28;20209;-83
2022/05/14 15:42:14;;;;;;;8.90;3.65;;;;;;;10.58;34.19;100953.09;10563658;28;20194;-82
2022/05/14 15:47:19;;;;;;;10.45;3.70;;;;;;;10.73;35.29;100949.44;10580911;28;20219;-84
2022/05/14 15:52:27;;;;;;;9.57;2.25;;;;;;;10.90;33.86;100945.41;10581119;28;20512;-83
2022/05/14 15:57:29;;;;;;;13.32;2.83;;;;;;;10.55;33.17;100935.94;10580450;28;20955;-84
2022/05/14 16:02:31;;;;;;;7.60;2.45;;;;;;;10.61;33.88;100946.69;10562784;28;20262;-82
2022/05/14 16:07:34;;;;;;;6.75;1.90;;;;;;;10.58;34.20;100938.03;10579722;28;20189;-83
2022/05/14 16:17:58;;;;;;;8.50;2.60;;;;;;;10.65;33.28;100930.53;10581387;28;20253;-84
2022/05/14 16:23:01;;;;;;;11.65;2.72;;;;;;;10.23;34.32;100932.16;10558394;28;20215;-85
2022/05/14 16:28:04;;;;;;;6.03;2.45;;;;;;;9.95;34.13;100932.16;10566866;28;20220;-86
2022/05/14 16:33:07;;;;;;;8.85;2.17;;;;;;;10.48;34.72;100932.88;10546842;28;20201;-86
2022/05/14 16:38:09;;;;;;;7.68;2.67;;;;;;;10.15;35.23;100933.97;10579649;28;20222;-87
2022/05/14 16:43:12;;;;;;;7.30;2.78;;;;;;;10.14;35.79;100935.16;10545846;28;20211;-85
2022/05/14 16:48:23;;;;;;;12.43;3.15;;;;;;;9.98;35.55;100934.28;10564094;28;20472;-88
2022/05/14 16:53:25;;;;;;;7.53;2.22;;;;;;;10.06;35.26;100938.97;10559271;28;20255;-84
2022/05/14 16:58:29;;;;;;;9.25;2.60;;;;;;;10.46;36.05;100940.94;10545482;28;20245;-85
2022/05/14 17:03:33;;;;;;;8.40;2.50;;;;;;;9.89;34.67;100936.47;10530772;27;20230;-85
2022/05/14 17:08:35;;;;;;;8.88;2.65;;;;;;;10.19;34.43;100934.88;10554618;27;20194;-86
2022/05/14 17:13:57;;;;;;;8.15;1.88;;;;;;;10.17;33.93;100931.56;10551072;28;20214;-86
2022/05/14 17:19:00;;;;;;;11.05;2.65;;;;;;;9.90;34.86;100930.41;10553787;28;20237;-86
2022/05/14 17:24:03;;;;;;;7.53;1.90;;;;;;;10.13;34.93;100927.81;10536223;28;20225;-85
2022/05/14 17:29:08;;;;;;;7.60;2.22;;;;;;;10.34;34.40;100925.56;10554096;28;20206;-84
2022/05/14 17:34:11;;;;;;;9.68;2.42;;;;;;;10.51;34.97;100935.00;10546911;27;20252;-85
2022/05/14 17:44:35;;;;;;;7.32;2.67;;;;;;;10.19;35.70;100923.50;10541475;28;20206;-84
2022/05/14 17:49:38;;;;;;;7.80;2.35;;;;;;;10.17;35.72;100934.41;10553540;28;20229;-87
2022/05/14 17:54:40;;;;;;;10.38;2.63;;;;;;;9.60;36.36;100929.88;10536480;27;20214;-87
2022/05/14 17:59:43;;;;;;;7.97;2.83;;;;;;;9.81;36.07;100934.56;10537996;28;20233;-84
2022/05/14 18:04:45;;;;;;;9.05;2.70;;;;;;;9.92;37.06;100932.88;10556026;27;20213;-86
2022/05/14 18:09:47;;;;;;;10.90;2.35;;;;;;;9.98;37.13;100928.59;10545137;28;20271;-86
2022/05/14 18:14:49;;;;;;;11.75;3.35;;;;;;;9.80;36.65;100932.91;10525560;28;20547;-84
2022/05/14 18:19:55;;;;;;;8.05;2.67;;;;;;;9.68;38.01;100931.72;10540742;28;20222;-85
2022/05/14 18:24:59;;;;;;;11.43;3.03;;;;;;;9.65;37.94;100925.91;10551358;28;20685;-84
2022/05/14 18:30:11;;;;;;;9.20;2.60;;;;;;;9.71;38.50;100930.19;10542739;28;20595;-86
2022/05/14 18:35:17;;;;;;;7.93;2.60;;;;;;;9.22;39.29;100927.44;10520233;28;20201;-85
2022/05/14 18:40:23;;;;;;;6.43;2.13;;;;;;;8.82;40.59;100926.44;10558209;28;20272;-86
2022/05/14 18:45:25;;;;;;;9.85;2.53;;;;;;;8.64;41.02;100940.03;10537738;28;20246;-87
2022/05/14 18:50:29;;;;;;;11.52;2.55;;;;;;;8.64;40.75;100940.03;10553024;28;20658;-85
2022/05/14 18:55:32;;;;;;;8.23;2.38;;;;;;;8.44;41.51;100940.94;10534889;28;20896;-85
2022/05/14 19:00:34;;;;;;;6.03;2.15;;;;;;;8.15;42.61;100950.38;10563465;28;20299;-85
2022/05/14 19:10:57;;;;;;;6.63;2.13;;;;;;;7.92;42.56;100949.94;10575728;28;20250;-85
2022/05/14 19:16:01;;;;;;;11.40;2.83;;;;;;;7.81;43.54;100960.03;10544063;28;20230;-85
2022/05/14 19:21:06;;;;;;;9.13;2.78;;;;;;;7.63;43.28;100955.66;10546172;28;20547;-85
2022/05/14 19:26:09;;;;;;;8.82;3.45;;;;;;;7.53;43.65;100969.09;10566162;28;20532;-84
2022/05/14 19:31:11;;;;;;;11.32;4.00;;;;;;;7.37;44.39;100975.66;10545129;28;20182;-85
2022/05/14 19:36:14;;;;;;;8.55;3.75;;;;;;;7.29;44.41;100968.88;10544492;28;20293;-85
2022/05/14 19:41:21;;;;;;;12.07;4.82;;;;;;;7.15;43.87;100973.94;10558568;28;20271;-88
2022/05/14 19:46:23;;;;;;;9.55;4.68;;;;;;;7.12;44.06;100978.28;10542944;27;20627;-87
2022/05/14 19:51:28;;;;;;;10.55;4.55;;;;;;;7.11;44.15;100992.78;10531041;28;20243;-86
2022/05/14 19:56:30;;;;;;;11.93;5.15;;;;;;;6.81;45.46;101000.41;10568792;28;20231;-84
2022/05/14 20:01:32;;;;;;;9.98;5.10;;;;;;;6.71;47.27;101001.59;10566274;28;20222;-87
2022/05/14 20:06:35;;;;;;;13.27;5.93;;;;;;;6.71;46.54;100995.94;10535276;28;20205;-86
2022/05/14 20:11:37;;;;;;;11.15;5.50;;;;;;;6.67;47.09;101003.41;10563079;28;20992;-85
2022/05/14 20:22:02;;;;;;;12.15;5.80;;;;;;;6.34;48.40;100996.66;10572987;28;20274;-85
2022/05/14 20:27:05;;;;;;;13.18;6.40;;;;;;;6.18;49.46;100994.34;10553430;28;20224;-88
2022/05/14 20:32:07;;;;;;;15.57;7.13;;;;;;;6.00;50.23;101003.19;10560041;28;20247;-85
2022/05/14 20:37:09;;;;;;;12.23;6.30;;;;;;;5.84;50.54;100997.16;10546061;28;20190;-86
2022/05/14 20:42:12;;;;;;;16.67;7.20;;;;;;;5.71;50.96;101006.63;10569701;28;20289;-86
2022/05/14 20:47:14;;;;;;;17.38;7.18;;;;;;;5.79;51.37;101012.28;10562365;27;20594;-86
2022/05/14 20:52:16;;;;;;;16.75;7.25;;;;;;;5.80;51.27;101011.13;10532186;28;20538;-90
2022/05/14 20:57:20;;;;;;;16.40;6.72;;;;;;;5.91;51.35;101011.66;10567952;27;20207;-85
2022/05/14 21:02:22;;;;;;;12.65;6.95;;;;;;;5.58;52.40;101025.38;10549167;27;20298;-86
2022/05/14 21:07:25;;;;;;;15.20;7.80;;;;;;;5.37;53.58;101019.50;10545235;27;20216;-86
2022/05/14 21:12:29;;;;;;;19.33;11.43;;;;;;;5.66;52.26;101016.06;10559279;27;20217;-87
2022/05/14 21:17:31;;;;;;;21.85;11.40;;;;;;;5.48;53.86;101011.56;10576492;27;20515;-86
2022/05/14 21:22:34;;;;;;;19.95;11.52;;;;;;;5.10;54.75;101016.94;10580437;27;20263;-86
2022/05/14 21:27:37;;;;;;;20.70;12.15;;;;;;;5.12;55.38;101011.78;10550656;27;20590;-86
2022/05/14 21:32:39;;;;;;;19.75;11.98;;;;;;;4.72;56.03;101025.81;10548288;27;20178;-86
2022/05/14 21:37:42;;;;;;;16.70;11.20;;;;;;;4.98;55.87;101027.94;10575491;28;20194;-85
2022/05/14 21:42:51;;;;;;;23.40;11.93;;;;;;;4.76;56.63;101021.22;10559705;27;20226;-86
2022/05/14 21:47:54;;;;;;;19.20;10.67;;;;;;;4.60;57.38;101022.78;10557779;28;20251;-86
2022/05/14 21:52:59;;;;;;;19.13;10.65;;;;;;;4.71;58.66;101020.53;10547546;28;20232;-87
2022/05/14 21:58:02;;;;;;;19.42;11.25;;;;;;;4.30;59.41;101017.94;10529734;28;20247;-85
2022/05/14 22:03:11;;;;;;;18.57;11.63;;;;;;;4.37;59.14;101021.13;10546456;28;20195;-86
2022/05/14 22:08:15;;;;;;;14.25;10.48;;;;;;;4.08;59.85;101027.19;10537620;28;20206;-85
2022/05/14 22:13:23;;;;;;;14.50;9.73;;;;;;;4.14;60.05;101022.28;10541536;28;20222;-87
2022/05/14 22:18:26;;;;;;;19.27;9.97;;;;;;;3.97;60.76;101022.94;10570318;28;20495;-86
2022/05/14 22:23:29;;;;;;;17.17;10.93;;;;;;;3.94;61.40;101021.56;10566675;28;20202;-85
2022/05/14 22:28:32;;;;;;;17.02;11.13;;;;;;;3.89;61.58;101018.06;10535520;28;20590;-87
2022/05/14 22:33:34;;;;;;;15.93;10.33;;;;;;;3.75;62.20;101017.28;10559191;28;20190;-87
2022/05/14 22:38:37;;;;;;;16.13;9.57;;;;;;;3.87;61.54;101021.19;10558794;28;20231;-87
2022/05/14 22:43:40;;;;;;;15.50;8.50;;;;;;;3.69;62.21;101025.81;10558548;28;20251;-86
2022/05/14 22:48:42;;;;;;;18.93;9.43;;;;;;;3.65;62.41;101023.97;10568528;28;20211;-88
2022/05/14 22:53:45;;;;;;;16.77;9.57;;;;;;;3.63;62.38;101021.47;10569022;28;20213;-86
2022/05/14 22:58:48;;;;;;;16.63;9.82;;;;;;;3.47;62.86;101025.78;10570120;28;20245;-87
2022/05/14 23:03:50;;;;;;;19.40;10.87;;;;;;;3.43;62.84;101032.34;10566790;28;20194;-87
2022/05/14 23:08:53;;;;;;;16.55;9.13;;;;;;;3.50;62.82;101033.59;10568387;28;20213;-88
2022/05/14 23:13:55;;;;;;;16.00;9.23;;;;;;;3.41;62.74;101020.56;10568997;28;20617;-87
2022/05/14 23:18:58;;;;;;;14.83;8.97;;;;;;;3.34;62.99;101029.44;10536378;28;20284;-87
2022/05/14 23:24:00;;;;;;;12.93;8.40;;;;;;;3.43;62.69;101032.34;10566515;27;20198;-85
2022/05/14 23:29:02;;;;;;;14.40;8.68;;;;;;;3.30;63.49;101026.41;10571935;27;20210;-86
2022/05/14 23:34:05;;;;;;;16.23;8.43;;;;;;;3.35;63.37;101026.31;10562205;27;20290;-85
2022/05/14 23:39:07;;;;;;;17.60;8.60;;;;;;;3.25;62.92;101026.53;10563226;27;20290;-85
2022/05/14 23:44:09;;;;;;;17.23;8.40;;;;;;;3.70;62.18;101021.03;10582968;27;20202;-85
2022/05/14 23:49:12;;;;;;;17.40;7.72;;;;;;;2.70;64.41;101027.59;10602894;27;20211;-85
2022/05/14 23:54:14;;;;;;;21.40;8.97;;;;;;;3.70;61.31;101018.22;10577446;27;20189;-85
